Time;durP1;ratioP1;P1;durP2;ratioP2;P2;SDS_P1;SDS_P2;PMS_P1;PMS_P2;Temp;Humidity;BMP_temperature;BMP_pressure;BME280_temperature;BME280_humidity;BME280_pressure;Samples;Min_cycle;Max_cycle;Signal;HPM_P1;HPM_P2
2021/05/04 00:01:45;;;;;;;5.95;3.10;;;7.60;99.90;;;;;;4975236;28;20094;-72
2021/05/04 00:04:11;;;;;;;3.50;3.20;;;7.40;99.90;;;;;;4975181;28;20019;-72
2021/05/04 00:06:37;;;;;;;3.47;2.92;;;7.30;99.90;;;;;;4975267;28;20029;-72
2021/05/04 00:09:04;;;;;;;4.05;3.55;;;7.20;99.90;;;;;;4975472;28;20046;-72
2021/05/04 00:11:30;;;;;;;2.88;2.22;;;7.30;99.90;;;;;;4975181;28;20031;-72
2021/05/04 00:13:55;;;;;;;3.35;2.70;;;7.50;99.90;;;;;;4975382;28;20381;-72
2021/05/04 00:16:21;;;;;;;3.42;2.97;;;7.50;99.90;;;;;;4975147;28;20441;-72
2021/05/04 00:18:47;;;;;;;4.32;3.53;;;7.60;99.90;;;;;;4974646;28;20035;-72
2021/05/04 00:21:13;;;;;;;2.67;2.47;;;7.60;99.90;;;;;;4974159;28;20170;-72
2021/05/04 00:23:39;;;;;;;5.15;2.70;;;7.60;99.90;;;;;;4974225;28;20042;-72
2021/05/04 00:26:05;;;;;;;3.10;2.80;;;7.50;99.90;;;;;;4975048;28;20027;-72
2021/05/04 00:28:30;;;;;;;2.95;2.75;;;7.60;99.90;;;;;;4974750;28;20030;-72
2021/05/04 00:30:56;;;;;;;2.88;2.63;;;7.70;99.90;;;;;;4974448;28;20606;-72
2021/05/04 00:33:22;;;;;;;2.25;1.90;;;7.70;99.90;;;;;;4974636;28;20038;-72
2021/05/04 00:35:48;;;;;;;2.90;2.22;;;7.50;99.90;;;;;;4974863;28;20031;-72
2021/05/04 00:38:14;;;;;;;2.58;2.38;;;7.30;99.90;;;;;;4974693;28;20476;-72
2021/05/04 00:40:40;;;;;;;2.97;2.75;;;7.10;99.90;;;;;;4974743;28;20081;-72
2021/05/04 00:43:06;;;;;;;4.78;2.38;;;7.10;99.90;;;;;;4981313;28;20072;-72
2021/05/04 00:45:32;;;;;;;3.63;2.55;;;7.00;99.90;;;;;;4994237;28;20022;-72
2021/05/04 00:47:57;;;;;;;2.83;2.55;;;7.00;99.90;;;;;;4993801;28;20026;-72
2021/05/04 00:50:23;;;;;;;3.05;2.85;;;7.10;99.90;;;;;;4994157;28;20037;-72
2021/05/04 00:52:49;;;;;;;3.97;2.72;;;7.10;99.90;;;;;;4981965;28;20054;-72
2021/05/04 00:55:15;;;;;;;2.60;2.08;;;7.10;99.90;;;;;;4972166;28;20023;-72
2021/05/04 00:57:43;;;;;;;6.15;2.20;;;7.00;99.90;;;;;;4993726;28;20053;-72
2021/05/04 01:00:12;;;;;;;3.05;2.67;;;7.00;99.90;;;;;;4975448;28;20376;-72
2021/05/04 01:02:40;;;;;;;2.77;2.57;;;6.70;99.90;;;;;;4972859;28;20481;-72
2021/05/04 01:05:07;;;;;;;3.35;2.83;;;7.00;99.90;;;;;;4974390;28;20102;-72
2021/05/04 01:07:33;;;;;;;2.88;2.53;;;7.00;99.90;;;;;;4974223;28;20378;-72
2021/05/04 01:09:59;;;;;;;2.38;2.17;;;6.60;99.90;;;;;;4973853;28;20054;-72
2021/05/04 01:12:25;;;;;;;9.05;2.33;;;6.60;99.90;;;;;;4974184;28;20045;-72
2021/05/04 01:14:51;;;;;;;2.47;2.28;;;6.50;99.90;;;;;;4984211;28;20045;-72
2021/05/04 01:17:16;;;;;;;2.65;2.45;;;6.50;99.90;;;;;;4993340;28;20054;-72
2021/05/04 01:19:42;;;;;;;4.10;2.40;;;6.50;99.90;;;;;;4976916;28;20107;-72
2021/05/04 01:22:08;;;;;;;2.70;2.45;;;6.70;99.90;;;;;;4974408;28;20027;-72
2021/05/04 01:24:35;;;;;;;2.38;2.10;;;6.70;99.90;;;;;;4973844;28;20470;-73
2021/05/04 01:27:01;;;;;;;2.45;2.25;;;6.60;99.90;;;;;;4973631;28;20046;-72
2021/05/04 01:29:27;;;;;;;2.50;2.30;;;6.50;99.90;;;;;;4974005;28;20121;-72
2021/05/04 01:31:54;;;;;;;4.32;2.22;;;6.60;99.90;;;;;;4973644;28;20504;-72
2021/05/04 01:34:20;;;;;;;3.50;2.38;;;6.70;99.90;;;;;;4974182;28;20085;-72
2021/05/04 01:36:46;;;;;;;3.65;2.97;;;6.70;99.90;;;;;;4974220;28;20042;-72
2021/05/04 01:39:12;;;;;;;1.73;1.60;;;6.50;99.90;;;;;;4976414;28;20034;-72
2021/05/04 01:41:39;;;;;;;2.42;2.10;;;6.40;99.90;;;;;;4993365;28;20026;-72
2021/05/04 01:44:06;;;;;;;3.45;3.13;;;6.20;99.90;;;;;;4993350;28;20022;-72
2021/05/04 01:46:32;;;;;;;5.53;2.70;;;6.30;99.90;;;;;;4987418;28;20058;-72
2021/05/04 01:49:04;;;;;;;2.38;2.13;;;6.50;99.90;;;;;;4973950;28;20055;-72
2021/05/04 01:51:30;;;;;;;2.65;2.13;;;6.50;99.90;;;;;;4973860;28;20027;-72
2021/05/04 01:53:57;;;;;;;3.63;2.38;;;6.20;99.90;;;;;;4973818;28;20039;-72
2021/05/04 01:56:23;;;;;;;2.53;2.33;;;5.90;99.90;;;;;;4978683;28;20077;-72
2021/05/04 01:58:49;;;;;;;3.58;2.80;;;6.00;99.90;;;;;;4993301;28;20073;-72
2021/05/04 02:01:15;;;;;;;3.40;2.80;;;6.10;99.90;;;;;;4973152;28;20070;-72
2021/05/04 02:03:41;;;;;;;5.10;2.75;;;6.00;99.90;;;;;;4973777;28;20030;-72
2021/05/04 02:06:07;;;;;;;2.50;2.28;;;6.00;99.90;;;;;;4973802;28;20371;-72
2021/05/04 02:08:33;;;;;;;3.13;2.60;;;5.80;99.90;;;;;;4976903;28;20559;-72
2021/05/04 02:10:59;;;;;;;4.10;2.88;;;5.80;99.90;;;;;;4986103;28;20033;-72
2021/05/04 02:13:25;;;;;;;4.63;3.00;;;5.70;99.90;;;;;;4996229;28;20045;-72
2021/05/04 02:15:52;;;;;;;3.08;2.88;;;5.70;99.90;;;;;;4996473;28;20060;-72
2021/05/04 02:18:18;;;;;;;2.70;2.50;;;5.60;99.90;;;;;;4996742;28;20027;-72
2021/05/04 02:20:43;;;;;;;3.65;2.90;;;5.70;99.90;;;;;;4996725;28;20057;-72
2021/05/04 02:23:09;;;;;;;4.07;2.33;;;5.80;99.90;;;;;;4995217;28;20034;-72
2021/05/04 02:25:35;;;;;;;6.47;3.00;;;6.10;99.90;;;;;;4991887;28;20029;-72
2021/05/04 02:28:03;;;;;;;2.95;2.75;;;6.20;99.90;;;;;;4976939;28;20382;-72
2021/05/04 02:30:32;;;;;;;3.05;2.65;;;6.30;99.90;;;;;;4986729;28;20069;-72
2021/05/04 02:32:58;;;;;;;2.72;2.45;;;6.30;99.90;;;;;;4996622;28;20057;-72
2021/05/04 02:35:23;;;;;;;2.30;2.10;;;6.20;99.90;;;;;;4996491;28;20069;-72
2021/05/04 02:37:49;;;;;;;2.35;2.15;;;6.00;99.90;;;;;;4996541;28;20436;-72
2021/05/04 02:40:15;;;;;;;2.50;2.30;;;6.10;99.90;;;;;;4981308;28;20481;-72
2021/05/04 02:42:41;;;;;;;4.43;2.63;;;6.10;99.90;;;;;;4976616;28;20033;-72
2021/05/04 02:45:07;;;;;;;4.63;2.53;;;6.10;99.90;;;;;;4976840;28;20073;-72
2021/05/04 02:47:33;;;;;;;2.50;2.30;;;6.10;99.90;;;;;;4976958;28;20023;-72
2021/05/04 02:49:58;;;;;;;2.85;2.38;;;6.00;99.90;;;;;;4976862;28;20496;-72
2021/05/04 02:52:24;;;;;;;3.47;2.70;;;6.00;99.90;;;;;;4976559;28;20121;-72
2021/05/04 02:54:50;;;;;;;2.92;2.50;;;6.10;99.90;;;;;;4987375;28;20153;-72
2021/05/04 02:57:17;;;;;;;2.85;2.38;;;6.10;99.90;;;;;;4983320;28;20108;-72
2021/05/04 02:59:43;;;;;;;4.25;3.10;;;5.80;99.90;;;;;;4986905;28;20038;-72
2021/05/04 03:02:09;;;;;;;3.13;2.58;;;5.50;99.90;;;;;;4976207;28;20046;-72
2021/05/04 03:04:36;;;;;;;3.10;2.72;;;5.50;99.90;;;;;;4976618;28;20038;-72
2021/05/04 03:07:01;;;;;;;5.03;2.35;;;5.40;99.90;;;;;;4976421;28;20504;-72
2021/05/04 03:09:27;;;;;;;3.90;2.58;;;5.60;99.90;;;;;;4979845;28;20030;-72
2021/05/04 03:11:53;;;;;;;3.00;2.40;;;5.70;99.90;;;;;;4988354;28;20504;-72
2021/05/04 03:14:19;;;;;;;3.10;2.80;;;5.50;99.90;;;;;;4988981;28;20478;-72
2021/05/04 03:16:44;;;;;;;6.72;3.33;;;5.60;99.90;;;;;;4996005;28;20033;-72
2021/05/04 03:19:10;;;;;;;4.22;2.70;;;5.70;99.90;;;;;;5009370;28;20030;-72
2021/05/04 03:21:36;;;;;;;2.50;2.30;;;5.70;99.90;;;;;;4995694;28;20034;-72
2021/05/04 03:24:02;;;;;;;3.08;2.10;;;5.70;99.90;;;;;;4995557;28;20499;-72
2021/05/04 03:26:28;;;;;;;3.17;2.53;;;5.60;99.90;;;;;;4990994;28;20089;-72
2021/05/04 03:28:53;;;;;;;2.70;2.50;;;5.60;99.90;;;;;;4976251;28;20019;-72
2021/05/04 03:31:19;;;;;;;3.33;3.03;;;5.70;99.90;;;;;;4976124;28;20030;-72
2021/05/04 03:33:45;;;;;;;3.08;2.70;;;5.70;99.90;;;;;;4974697;28;20022;-72
2021/05/04 03:36:11;;;;;;;4.22;3.83;;;5.80;99.90;;;;;;4976117;28;20034;-72
2021/05/04 03:38:37;;;;;;;3.40;2.15;;;5.90;99.90;;;;;;4977014;28;20085;-72
2021/05/04 03:41:03;;;;;;;2.65;2.45;;;5.80;99.90;;;;;;4995116;28;20496;-72
2021/05/04 03:43:28;;;;;;;2.65;2.45;;;5.60;99.90;;;;;;4995166;28;20033;-72
2021/05/04 03:45:54;;;;;;;3.63;2.60;;;5.60;99.90;;;;;;4994722;28;20026;-72
2021/05/04 03:48:20;;;;;;;3.45;2.65;;;5.80;99.90;;;;;;4995223;28;20033;-72
2021/05/04 03:50:47;;;;;;;2.25;2.05;;;5.60;99.90;;;;;;4995237;28;20023;-72
2021/05/04 03:53:14;;;;;;;2.60;2.40;;;5.50;99.90;;;;;;4995067;28;20492;-72
2021/05/04 03:55:39;;;;;;;3.15;2.75;;;5.10;99.90;;;;;;4991308;28;20030;-72
2021/05/04 03:58:05;;;;;;;3.17;2.83;;;5.10;99.90;;;;;;4975556;28;20030;-72
2021/05/04 04:00:31;;;;;;;4.05;2.90;;;5.30;99.90;;;;;;4975359;28;20366;-72
2021/05/04 04:02:56;;;;;;;3.30;3.10;;;5.50;99.90;;;;;;4975342;28;20512;-72
2021/05/04 04:05:22;;;;;;;2.60;2.40;;;5.50;99.90;;;;;;4975387;28;20030;-72
2021/05/04 04:07:48;;;;;;;2.95;2.75;;;5.40;99.90;;;;;;4989738;28;20030;-72
2021/05/04 04:10:14;;;;;;;2.90;2.60;;;5.40;99.90;;;;;;4978759;28;20507;-72
2021/05/04 04:12:40;;;;;;;3.03;2.72;;;5.40;99.90;;;;;;4975311;28;20058;-72
2021/05/04 04:15:07;;;;;;;4.90;2.78;;;5.40;99.90;;;;;;4975256;28;20444;-72
2021/05/04 04:17:33;;;;;;;4.55;2.22;;;5.30;99.90;;;;;;4975198;28;20035;-72
2021/05/04 04:19:59;;;;;;;2.67;2.28;;;5.30;99.90;;;;;;4975153;28;20030;-72
2021/05/04 04:22:25;;;;;;;2.67;2.45;;;5.10;99.90;;;;;;4974744;28;20030;-72
2021/05/04 04:24:54;;;;;;;4.93;2.30;;;5.00;99.90;;;;;;4975583;28;20050;-72
2021/05/04 04:27:23;;;;;;;5.57;2.72;;;5.00;99.90;;;;;;4970139;28;20045;-72
2021/05/04 04:29:49;;;;;;;3.20;1.90;;;4.90;99.90;;;;;;4983056;28;20049;-72
2021/05/04 04:32:15;;;;;;;3.03;2.72;;;4.80;99.90;;;;;;4993778;28;20437;-72
2021/05/04 04:34:41;;;;;;;2.90;2.70;;;4.80;99.90;;;;;;4994262;28;20054;-72
2021/05/04 04:37:07;;;;;;;2.60;2.25;;;5.10;99.90;;;;;;4994049;28;20030;-72
2021/05/04 04:39:33;;;;;;;3.00;2.15;;;5.20;99.90;;;;;;4992033;28;20472;-72
2021/05/04 04:41:58;;;;;;;2.50;2.25;;;5.20;99.90;;;;;;4994297;28;20022;-72
2021/05/04 04:44:24;;;;;;;2.38;2.17;;;5.00;99.90;;;;;;4993791;28;20098;-70
2021/05/04 04:46:50;;;;;;;4.10;2.38;;;4.90;99.90;;;;;;4985017;28;20523;-72
2021/05/04 04:49:18;;;;;;;2.97;2.30;;;5.00;99.90;;;;;;4984899;28;20026;-72
2021/05/04 04:51:46;;;;;;;2.63;2.42;;;5.10;99.90;;;;;;4985109;28;20397;-72
2021/05/04 04:54:12;;;;;;;2.83;2.63;;;5.10;99.90;;;;;;4971881;28;20446;-72
2021/05/04 04:56:38;;;;;;;3.90;2.40;;;5.00;99.90;;;;;;4987109;28;20085;-72
2021/05/04 04:59:05;;;;;;;2.45;2.25;;;4.90;99.90;;;;;;4988015;28;20026;-72
2021/05/04 05:01:31;;;;;;;3.05;2.70;;;5.00;99.90;;;;;;4987219;28;20401;-75
2021/05/04 05:03:57;;;;;;;3.80;2.90;;;5.00;99.90;;;;;;4990075;28;20051;-72
2021/05/04 05:06:23;;;;;;;4.13;2.80;;;5.10;99.90;;;;;;4975651;28;20058;-72
2021/05/04 05:08:50;;;;;;;3.53;2.60;;;5.20;99.90;;;;;;4991211;28;20035;-72
2021/05/04 05:11:16;;;;;;;2.97;2.78;;;5.30;99.90;;;;;;4986875;28;20080;-72
2021/05/04 05:13:43;;;;;;;3.53;3.22;;;5.60;99.90;;;;;;4977573;28;20035;-72
2021/05/04 05:16:09;;;;;;;3.30;2.70;;;5.70;99.90;;;;;;4985273;28;20480;-72
2021/05/04 05:18:34;;;;;;;3.15;2.80;;;5.90;99.90;;;;;;4984383;28;20077;-72
2021/05/04 05:21:01;;;;;;;4.10;2.72;;;6.00;99.90;;;;;;4978213;28;20018;-72
2021/05/04 05:23:27;;;;;;;7.20;3.00;;;5.80;99.90;;;;;;4987705;28;20085;-72
2021/05/04 05:25:53;;;;;;;7.78;3.83;;;5.90;99.90;;;;;;4981916;28;20447;-72
2021/05/04 05:28:19;;;;;;;7.57;4.00;;;5.80;99.90;;;;;;4985541;28;20364;-72
2021/05/04 05:30:45;;;;;;;10.10;4.95;;;6.10;99.90;;;;;;4983776;28;20041;-72
2021/05/04 05:33:10;;;;;;;12.45;5.30;;;6.30;99.90;;;;;;4975971;28;20025;-72
2021/05/04 05:35:36;;;;;;;8.05;5.38;;;6.50;99.90;;;;;;4982532;28;20431;-73
2021/05/04 05:38:05;;;;;;;9.13;5.07;;;6.50;99.90;;;;;;4979863;28;20057;-73
2021/05/04 05:40:32;;;;;;;4.95;3.95;;;6.70;99.90;;;;;;4985330;28;20027;-73
2021/05/04 05:42:58;;;;;;;8.35;3.97;;;6.70;99.90;;;;;;4978426;28;20022;-73
2021/05/04 05:45:24;;;;;;;4.10;3.70;;;6.80;99.90;;;;;;4979024;28;20027;-73
2021/05/04 05:47:50;;;;;;;4.57;3.22;;;7.00;99.90;;;;;;4979508;28;20030;-73
2021/05/04 05:50:16;;;;;;;4.05;3.30;;;7.20;99.90;;;;;;4982460;28;20011;-75
2021/05/04 05:52:42;;;;;;;4.90;3.58;;;7.30;99.90;;;;;;4992349;28;20026;-74
2021/05/04 05:55:08;;;;;;;3.38;3.08;;;7.30;99.90;;;;;;4984925;28;20102;-73
2021/05/04 05:57:34;;;;;;;6.18;3.13;;;7.40;99.90;;;;;;4985251;28;20014;-73
2021/05/04 06:00:00;;;;;;;4.85;3.88;;;7.60;99.90;;;;;;4985586;28;20469;-72
2021/05/04 06:02:25;;;;;;;19.27;8.15;;;7.70;99.90;;;;;;4977892;28;20129;-72
2021/05/04 06:04:52;;;;;;;4.00;3.58;;;7.90;99.90;;;;;;4976138;28;20031;-73
2021/05/04 06:07:18;;;;;;;4.05;3.70;;;8.00;99.90;;;;;;4977960;28;20844;-73
2021/05/04 06:09:44;;;;;;;3.13;2.85;;;8.10;99.90;;;;;;4974469;28;20573;-72
2021/05/04 06:12:09;;;;;;;3.92;3.10;;;8.30;99.90;;;;;;4975892;28;20039;-71
2021/05/04 06:14:35;;;;;;;7.20;3.33;;;8.40;99.90;;;;;;4993970;28;20480;-71
2021/05/04 06:17:01;;;;;;;5.00;3.40;;;8.40;99.90;;;;;;4991348;28;20034;-71
2021/05/04 06:19:27;;;;;;;5.53;4.00;;;8.50;99.90;;;;;;4976907;28;20038;-70
2021/05/04 06:21:52;;;;;;;3.53;2.67;;;8.60;99.90;;;;;;4966034;28;20062;-71
2021/05/04 06:24:18;;;;;;;3.50;3.20;;;8.60;99.90;;;;;;4975492;28;20019;-71
2021/05/04 06:26:44;;;;;;;5.65;3.40;;;8.80;99.90;;;;;;4976175;28;20029;-70
2021/05/04 06:29:09;;;;;;;3.42;3.13;;;9.00;99.90;;;;;;4988362;28;20041;-71
2021/05/04 06:31:36;;;;;;;4.35;3.67;;;9.20;99.90;;;;;;4983519;28;20026;-71
2021/05/04 06:34:04;;;;;;;3.53;3.22;;;9.50;99.90;;;;;;4976767;28;20404;-71
2021/05/04 06:36:30;;;;;;;4.85;3.67;;;9.70;99.90;;;;;;4979308;28;20493;-71
2021/05/04 06:38:55;;;;;;;3.92;2.78;;;9.90;99.90;;;;;;4976718;28;20034;-71
2021/05/04 06:41:21;;;;;;;2.80;2.58;;;10.10;99.90;;;;;;4981911;28;20030;-71
2021/05/04 06:43:47;;;;;;;3.30;3.00;;;10.20;99.90;;;;;;4982348;28;20037;-71
2021/05/04 06:46:13;;;;;;;5.45;3.08;;;10.20;99.90;;;;;;4974470;28;20038;-71
2021/05/04 06:48:38;;;;;;;4.82;3.90;;;10.20;99.90;;;;;;4979319;28;20038;-71
2021/05/04 06:51:04;;;;;;;3.28;3.08;;;10.30;99.90;;;;;;4974397;28;20030;-71
2021/05/04 06:53:30;;;;;;;3.70;3.08;;;10.60;99.90;;;;;;4980190;28;20037;-71
2021/05/04 06:55:56;;;;;;;3.72;2.20;;;11.00;99.90;;;;;;4980126;28;20110;-70
2021/05/04 06:58:21;;;;;;;3.42;3.13;;;11.00;99.90;;;;;;4993211;28;20046;-70
2021/05/04 07:00:47;;;;;;;3.58;2.97;;;10.90;99.90;;;;;;4990788;28;20400;-70
2021/05/04 07:03:13;;;;;;;2.97;2.47;;;10.90;99.90;;;;;;4978930;28;20042;-70
2021/05/04 07:05:39;;;;;;;2.90;2.70;;;10.90;99.90;;;;;;4995073;28;20102;-70
2021/05/04 07:08:05;;;;;;;4.65;3.03;;;11.20;99.90;;;;;;4995348;28;20484;-70
2021/05/04 07:10:31;;;;;;;7.68;3.75;;;11.30;99.90;;;;;;4994964;28;20109;-70
2021/05/04 07:12:56;;;;;;;4.05;3.65;;;11.40;99.90;;;;;;4995385;28;20153;-70
2021/05/04 07:15:22;;;;;;;3.88;3.53;;;11.40;99.90;;;;;;4995395;28;20036;-70
2021/05/04 07:17:48;;;;;;;4.28;3.38;;;11.40;99.90;;;;;;4995216;28;20018;-70
2021/05/04 07:20:22;;;;;;;3.70;3.40;;;11.40;99.90;;;;;;4994887;28;20033;-70
2021/05/04 07:22:53;;;;;;;3.13;2.83;;;11.60;99.90;;;;;;4985446;28;20061;-70
2021/05/04 07:25:19;;;;;;;4.50;3.20;;;11.80;99.90;;;;;;4975574;28;20595;-70
2021/05/04 07:27:44;;;;;;;4.00;3.20;;;12.00;99.90;;;;;;4975520;28;20492;-70
2021/05/04 07:30:10;;;;;;;5.75;3.75;;;12.20;99.90;;;;;;4975641;28;20062;-70
2021/05/04 07:32:36;;;;;;;3.20;2.80;;;12.30;99.90;;;;;;4974847;28;20039;-68
2021/05/04 07:35:02;;;;;;;3.65;3.00;;;12.50;99.90;;;;;;4975386;28;20030;-69
2021/05/04 07:37:28;;;;;;;6.43;3.58;;;12.70;99.90;;;;;;4975487;28;20101;-69
2021/05/04 07:39:53;;;;;;;3.00;2.67;;;12.80;99.90;;;;;;4974198;28;20030;-68
2021/05/04 07:42:19;;;;;;;4.22;2.63;;;12.90;99.90;;;;;;4975153;28;20061;-68
2021/05/04 07:44:45;;;;;;;2.83;2.55;;;13.10;99.90;;;;;;4974137;28;20034;-69
2021/05/04 07:47:11;;;;;;;3.00;2.70;;;13.30;99.90;;;;;;4974910;28;20477;-68
2021/05/04 07:49:42;;;;;;;2.67;2.47;;;13.50;99.90;;;;;;4975349;28;20480;-69
2021/05/04 07:52:08;;;;;;;6.88;3.33;;;13.80;99.90;;;;;;4975322;28;20026;-69
2021/05/04 07:54:34;;;;;;;3.58;2.97;;;13.90;99.90;;;;;;4974891;28;20564;-69
2021/05/04 07:57:00;;;;;;;3.67;2.67;;;14.00;99.90;;;;;;4974900;28;20075;-69
2021/05/04 07:59:25;;;;;;;3.13;2.85;;;14.00;99.90;;;;;;4975001;28;20038;-69
2021/05/04 08:01:51;;;;;;;4.15;2.80;;;14.20;99.90;;;;;;4974588;28;20584;-69
2021/05/04 08:04:17;;;;;;;3.15;2.47;;;14.40;99.90;;;;;;4975021;28;20512;-69
2021/05/04 08:06:43;;;;;;;3.28;2.47;;;14.60;99.90;;;;;;4974163;28;20026;-69
2021/05/04 08:09:08;;;;;;;2.40;2.20;;;14.80;99.90;;;;;;4974790;28;20030;-69
2021/05/04 08:11:35;;;;;;;2.97;2.63;;;15.00;99.90;;;;;;4974728;28;20039;-69
2021/05/04 08:14:02;;;;;;;2.00;1.88;;;15.30;99.90;;;;;;4974953;28;20066;-69
2021/05/04 08:16:30;;;;;;;2.47;2.22;;;15.60;99.90;;;;;;4974266;28;20035;-69
2021/05/04 08:18:56;;;;;;;2.83;2.08;;;15.70;99.90;;;;;;4974657;28;20536;-69
2021/05/04 08:21:24;;;;;;;2.08;1.88;;;15.70;99.90;;;;;;4975178;28;20031;-69
2021/05/04 08:23:49;;;;;;;2.53;2.33;;;16.00;99.90;;;;;;4974148;28;20065;-69
2021/05/04 08:26:15;;;;;;;5.03;2.50;;;16.20;99.90;;;;;;4974538;28;20547;-69
2021/05/04 08:28:41;;;;;;;3.35;1.85;;;16.20;99.90;;;;;;4989496;28;20396;-69
2021/05/04 08:31:07;;;;;;;2.40;2.20;;;16.40;99.90;;;;;;4974228;28;20022;-69
2021/05/04 08:33:33;;;;;;;4.18;2.45;;;16.60;99.90;;;;;;4974374;28;20030;-69
2021/05/04 08:35:59;;;;;;;1.60;1.50;;;16.60;99.90;;;;;;4974301;28;20038;-69
2021/05/04 08:38:25;;;;;;;6.60;2.25;;;16.70;99.90;;;;;;4974156;28;20089;-69
2021/05/04 08:40:50;;;;;;;3.28;1.83;;;16.70;99.90;;;;;;4974372;28;20066;-69
2021/05/04 08:43:24;;;;;;;2.55;1.90;;;16.70;99.90;;;;;;4974109;28;20031;-69
2021/05/04 08:45:58;;;;;;;2.92;2.00;;;16.90;99.90;;;;;;4973703;28;20498;-69
2021/05/04 08:48:25;;;;;;;2.13;1.90;;;17.00;99.90;;;;;;4974100;28;20034;-69
2021/05/04 08:50:53;;;;;;;2.33;1.40;;;17.30;99.90;;;;;;4973994;28;20035;-69
2021/05/04 08:53:19;;;;;;;1.80;1.70;;;17.40;99.90;;;;;;4974208;28;20090;-69
2021/05/04 08:55:45;;;;;;;1.83;1.70;;;17.50;99.90;;;;;;4973735;28;20158;-69
2021/05/04 08:58:11;;;;;;;2.45;1.48;;;18.00;99.90;;;;;;4974166;28;20037;-71
2021/05/04 09:00:36;;;;;;;2.83;1.63;;;18.10;99.90;;;;;;4973482;28;20027;-71
2021/05/04 09:03:15;;;;;;;1.80;1.70;;;18.20;99.90;;;;;;4973834;28;20054;-71
2021/05/04 09:06:06;;;;;;;4.80;2.00;;;18.40;99.90;;;;;;4973820;28;20023;-71
2021/05/04 09:17:01;;;;;;;14.85;2.50;;;18.50;99.90;;;;;;4973819;28;20438;-71
2021/05/04 09:21:53;;;;;;;4.68;2.15;;;19.00;99.90;;;;;;4973586;28;20038;-71
2021/05/04 09:24:24;;;;;;;1.98;1.75;;;19.00;99.90;;;;;;4973587;28;20117;-71
2021/05/04 09:26:58;;;;;;;9.20;2.40;;;19.10;99.90;;;;;;4973696;28;20110;-71
2021/05/04 09:29:29;;;;;;;1.80;1.70;;;19.40;98.10;;;;;;4973348;28;20031;-71
2021/05/04 09:32:13;;;;;;;1.67;1.58;;;19.90;99.90;;;;;;4973520;28;20378;-71
2021/05/04 09:34:53;;;;;;;3.20;2.10;;;20.60;99.90;;;;;;4973462;28;20114;-71
2021/05/04 09:37:29;;;;;;;1.90;1.70;;;20.60;92.70;;;;;;4973557;28;20374;-71
2021/05/04 09:39:57;;;;;;;1.88;1.70;;;21.30;94.40;;;;;;4973297;28;20039;-71
2021/05/04 09:42:30;;;;;;;4.20;1.88;;;21.80;92.00;;;;;;4973350;28;20026;-71
2021/05/04 09:44:56;;;;;;;3.90;2.05;;;24.20;86.10;;;;;;4972978;28;20110;-71
2021/05/04 09:47:24;;;;;;;5.13;4.60;;;26.90;71.00;;;;;;4973716;28;20094;-71
2021/05/04 09:49:51;;;;;;;5.78;3.72;;;27.40;62.40;;;;;;4973172;28;20058;-70
2021/05/04 09:52:32;;;;;;;8.50;8.00;;;26.10;65.70;;;;;;4973354;28;20031;-69
2021/05/04 09:55:01;;;;;;;5.00;4.57;;;25.20;74.20;;;;;;4973303;28;20030;-69
2021/05/04 09:57:35;;;;;;;4.32;2.97;;;24.70;73.70;;;;;;4973358;28;20038;-70
2021/05/04 10:00:05;;;;;;;9.48;4.00;;;23.10;92.60;;;;;;4973229;28;20070;-69
2021/05/04 10:02:31;;;;;;;3.65;3.33;;;21.80;95.40;;;;;;4973202;28;20035;-69
2021/05/04 10:04:59;;;;;;;3.05;2.58;;;21.30;97.90;;;;;;4973226;28;20033;-69
2021/05/04 10:07:25;;;;;;;5.97;3.05;;;21.10;99.10;;;;;;4973417;28;20097;-69
2021/05/04 10:09:50;;;;;;;4.88;3.30;;;23.10;98.00;;;;;;4972938;28;20022;-69
2021/05/04 10:12:22;;;;;;;6.85;2.60;;;22.90;95.40;;;;;;4971697;28;20035;-69
2021/05/04 10:14:51;;;;;;;3.63;2.65;;;24.10;91.60;;;;;;4973194;28;20374;-69
2021/05/04 10:17:17;;;;;;;3.03;2.35;;;25.30;86.60;;;;;;4973187;28;20039;-69
2021/05/04 10:19:43;;;;;;;5.53;2.63;;;28.40;64.80;;;;;;4972843;28;20057;-69
2021/05/04 10:22:11;;;;;;;3.92;2.95;;;27.60;63.40;;;;;;4971744;28;20026;-69
2021/05/04 10:24:42;;;;;;;8.18;3.08;;;28.10;62.40;;;;;;4972929;28;20043;-70
2021/05/04 10:27:09;;;;;;;4.72;3.10;;;30.10;59.40;;;;;;4972713;28;20082;-70
2021/05/04 10:29:37;;;;;;;3.45;2.80;;;30.90;56.00;;;;;;4975422;28;20023;-69
2021/05/04 10:32:03;;;;;;;5.85;2.67;;;30.90;53.40;;;;;;4976496;28;20034;-69
2021/05/04 10:34:34;;;;;;;10.88;3.05;;;29.40;56.80;;;;;;4976457;28;20034;-70
2021/05/04 10:37:01;;;;;;;3.80;2.70;;;32.30;55.50;;;;;;4976466;28;20054;-70
2021/05/04 10:39:43;;;;;;;3.10;2.80;;;34.50;53.20;;;;;;4976547;28;20027;-70
2021/05/04 10:42:14;;;;;;;3.20;3.00;;;34.80;47.00;;;;;;4976110;28;20023;-70
2021/05/04 10:44:56;;;;;;;6.55;3.88;;;32.80;47.90;;;;;;4976417;28;20034;-70
2021/05/04 10:47:43;;;;;;;7.63;3.90;;;30.30;51.00;;;;;;4976407;28;20381;-70
2021/05/04 10:50:13;;;;;;;4.05;2.75;;;29.70;55.80;;;;;;4976136;28;20504;-70
2021/05/04 10:53:00;;;;;;;3.00;2.80;;;30.30;57.60;;;;;;4976296;28;20033;-70
2021/05/04 10:55:52;;;;;;;5.00;2.90;;;29.50;56.80;;;;;;4976331;28;20035;-70
2021/05/04 10:58:22;;;;;;;3.50;3.00;;;30.60;54.80;;;;;;4975829;28;20031;-70
2021/05/04 11:00:48;;;;;;;4.80;2.63;;;33.60;51.80;;;;;;4975896;28;20037;-70
2021/05/04 11:03:29;;;;;;;4.18;3.13;;;31.80;51.50;;;;;;4976058;28;20400;-70
2021/05/04 11:06:05;;;;;;;6.35;2.95;;;30.70;52.50;;;;;;4976204;28;20504;-70
2021/05/04 11:08:40;;;;;;;4.47;3.33;;;31.30;54.60;;;;;;4976102;28;20038;-70
2021/05/04 11:11:29;;;;;;;4.53;2.80;;;30.20;58.20;;;;;;4975409;28;20046;-70
2021/05/04 11:13:59;;;;;;;3.35;2.95;;;30.20;57.00;;;;;;4975912;28;20058;-70
2021/05/04 11:16:29;;;;;;;3.10;2.80;;;30.60;53.90;;;;;;4975790;28;20035;-70
2021/05/04 11:19:08;;;;;;;3.95;3.47;;;34.20;49.60;;;;;;4975738;28;20504;-70
2021/05/04 11:21:42;;;;;;;3.55;3.10;;;34.50;46.00;;;;;;4975717;28;20089;-70
2021/05/04 11:24:10;;;;;;;7.03;3.30;;;36.20;44.90;;;;;;4975543;28;20027;-70
2021/05/04 11:26:51;;;;;;;3.78;3.00;;;36.60;46.10;;;;;;4975382;28;20027;-70
2021/05/04 11:29:20;;;;;;;4.03;3.08;;;35.10;44.10;;;;;;4975615;28;20110;-70
2021/05/04 11:31:53;;;;;;;5.00;3.10;;;33.50;45.30;;;;;;4975912;28;20030;-70
2021/05/04 11:34:50;;;;;;;7.18;3.10;;;33.30;47.50;;;;;;4975540;28;20114;-70
2021/05/04 11:37:26;;;;;;;6.90;3.10;;;31.40;49.30;;;;;;4975349;28;20037;-70
2021/05/04 11:39:57;;;;;;;5.15;3.05;;;28.90;54.60;;;;;;4974351;28;20093;-70
2021/05/04 11:42:26;;;;;;;3.75;3.13;;;29.60;57.00;;;;;;4975360;28;20042;-70
2021/05/04 11:44:52;;;;;;;2.63;2.53;;;32.70;48.20;;;;;;4975422;28;20022;-70
2021/05/04 11:47:26;;;;;;;3.03;2.83;;;34.60;48.80;;;;;;4975096;28;20513;-70
2021/05/04 11:50:05;;;;;;;3.58;3.17;;;34.60;45.80;;;;;;4975297;28;20054;-70
2021/05/04 11:52:31;;;;;;;3.35;2.53;;;35.00;45.50;;;;;;4975209;28;20034;-70
2021/05/04 11:55:15;;;;;;;5.80;2.92;;;36.60;43.10;;;;;;4974789;28;20038;-70
2021/05/04 11:57:43;;;;;;;2.95;2.75;;;36.90;44.70;;;;;;4975087;28;20397;-70
2021/05/04 12:00:12;;;;;;;3.20;3.00;;;36.10;43.40;;;;;;4974926;28;20117;-70
2021/05/04 12:02:38;;;;;;;3.63;3.10;;;33.60;47.40;;;;;;4974903;28;20054;-70
2021/05/04 12:05:05;;;;;;;3.72;2.83;;;35.70;45.00;;;;;;4974735;28;20031;-70
2021/05/04 12:07:35;;;;;;;3.40;3.10;;;36.10;42.50;;;;;;4974886;28;20547;-70
2021/05/04 12:10:01;;;;;;;4.57;2.90;;;36.10;41.50;;;;;;4974744;28;20041;-70
2021/05/04 12:12:48;;;;;;;3.88;3.10;;;36.40;41.80;;;;;;4974756;28;20035;-70
2021/05/04 12:15:17;;;;;;;3.47;3.17;;;36.80;42.00;;;;;;4974559;28;20039;-71
2021/05/04 12:17:54;;;;;;;5.57;3.05;;;38.40;43.70;;;;;;4974757;28;20536;-71
2021/05/04 12:20:21;;;;;;;3.33;3.03;;;36.90;41.50;;;;;;4974430;28;20039;-71
2021/05/04 12:22:58;;;;;;;7.95;3.15;;;37.00;40.50;;;;;;4974189;28;20022;-71
2021/05/04 12:25:40;;;;;;;3.53;2.92;;;38.20;43.20;;;;;;4974427;28;20114;-71
2021/05/04 12:28:13;;;;;;;3.20;3.00;;;39.00;37.80;;;;;;4975025;28;20039;-71
2021/05/04 12:30:39;;;;;;;3.38;3.17;;;37.90;38.60;;;;;;4974559;28;20476;-71
2021/05/04 12:33:05;;;;;;;3.25;2.78;;;37.10;38.80;;;;;;4974310;28;20041;-71
2021/05/04 12:35:33;;;;;;;3.58;3.28;;;37.10;41.20;;;;;;4974366;28;20040;-71
2021/05/04 12:38:06;;;;;;;3.65;2.92;;;38.20;39.60;;;;;;4974084;28;20039;-71
2021/05/04 12:40:32;;;;;;;4.68;3.08;;;37.90;42.00;;;;;;4974217;28;20027;-71
2021/05/04 12:43:17;;;;;;;3.35;2.80;;;39.10;40.90;;;;;;4974299;28;20033;-71
2021/05/04 12:46:05;;;;;;;3.92;3.22;;;39.10;38.70;;;;;;4974199;28;20042;-71
2021/05/04 12:48:32;;;;;;;3.30;2.45;;;39.30;39.20;;;;;;4974227;28;20105;-71
2021/05/04 12:51:14;;;;;;;2.80;2.40;;;35.70;37.50;;;;;;4973749;28;20486;-71
2021/05/04 12:53:42;;;;;;;3.75;2.40;;;31.60;44.70;;;;;;4973877;28;20059;-70
2021/05/04 12:56:10;;;;;;;4.63;2.55;;;28.30;54.30;;;;;;4974035;28;20519;-70
2021/05/04 12:59:01;;;;;;;4.22;3.00;;;28.40;56.70;;;;;;4973851;28;20031;-70
2021/05/04 13:01:36;;;;;;;3.70;2.53;;;34.10;47.20;;;;;;4973711;28;20043;-70
2021/05/04 13:04:05;;;;;;;4.43;2.35;;;35.00;46.80;;;;;;4974004;28;20019;-70
2021/05/04 13:09:16;;;;;;;3.85;2.65;;;31.70;45.90;;;;;;4973768;28;20027;-70
2021/05/04 13:11:54;;;;;;;3.65;2.72;;;30.90;50.30;;;;;;4973861;28;20031;-70